Atlas — YP3292 — position and weather

sailwx.info

Track history (hours):
 
Tides and Currents Weather Stations Pressure Air Temp Water Temp Dewpoint Dewpoint Depression Visibility Wind Speed Wind Dir Waves Ship Positions

Atlas

Last reported at 2017-Nov-18 15:27 UTC. Time now 2017-Nov-21 10:12 UTC.
Position N 45°59' E 018°43'.

Length 110 m; draft 0.3 m.

Type: Tanker. MMSI: 264163292.

Date/timePositionNaut miles runAvg speedWind from/ knotsBaromVisibWave heightAir tempDewpointWater temp
2017-Nov-18 15:27N 45°59' E 018°43'5 1.2
2017-Nov-18 10:53N 45°55' E 018°48'2 5.3
2017-Nov-18 10:30N 45°53' E 018°50'3 5.0
2017-Nov-18 09:59N 45°51' E 018°52'0 0.0
2017-Nov-18 09:18N 45°51' E 018°52'0 1.6
2017-Nov-18 09:00N 45°50' E 018°51'3 5.6
2017-Nov-18 08:30N 45°48' E 018°51'2 5.0
2017-Nov-18 08:00N 45°46' E 018°53'3 5.8
2017-Nov-18 07:31N 45°43' E 018°54'3 5.4
2017-Nov-18 07:01N 45°41' E 018°57'2 2.3
2017-Nov-18 06:08N 45°39' E 018°57'1 4.9
2017-Nov-18 06:01N 45°38' E 018°56'3 5.1
2017-Nov-18 05:31N 45°36' E 018°54'3 4.9
2017-Nov-18 04:57N 45°34' E 018°54'3 5.4
2017-Nov-18 04:22N 45°32' E 018°58'2 5.5
2017-Nov-18 04:01N 45°33' E 019°00'2 3.6
2017-Nov-18 03:27N 45°32' E 019°03'2 5.5
2017-Nov-18 03:01N 45°31' E 019°06'3 4.9
2017-Nov-18 02:30N 45°29' E 019°04'3 5.4
2017-Nov-18 02:01N 45°30' E 018°60'3 5.8
2017-Nov-18 01:31N 45°27' E 018°59'3 5.5
2017-Nov-18 01:01N 45°25' E 019°02'3 5.5
2017-Nov-18 00:31N 45°23' E 018°58'3 5.5
2017-Nov-18 00:00N 45°21' E 019°01'3 5.9
2017-Nov-17 23:31N 45°21' E 019°05'3 5.5
2017-Nov-17 23:01N 45°18' E 019°06'3 5.8
2017-Nov-17 22:30N 45°17' E 019°10'3 5.8
2017-Nov-17 22:00N 45°15' E 019°13'3 5.3
2017-Nov-17 21:28N 45°14' E 019°17'3 6.0
2017-Nov-17 21:00N 45°14' E 019°21'3 5.8
2017-Nov-17 20:31N 45°14' E 019°25'3 5.8
2017-Nov-17 20:00N 45°14' E 019°29'3 4.3
2017-Nov-17 19:13N 45°13' E 019°34'3 5.4
2017-Nov-17 18:39N 45°13' E 019°38'1 3.7
2017-Nov-17 18:30N 45°13' E 019°39'3 5.7
2017-Nov-17 18:00N 45°14' E 019°43'3 5.6
2017-Nov-17 17:28N 45°13' E 019°47'3 5.6
2017-Nov-17 17:01N 45°14' E 019°51'2 4.3
2017-Nov-17 16:28N 45°16' E 019°52'3 3.9
2017-Nov-17 15:46N 45°14' E 019°55'2 6.6
2017-Nov-17 15:30N 45°12' E 019°57'3 6.4
2017-Nov-17 15:00N 45°11' E 020°00'4 6.7
2017-Nov-17 14:28N 45°10' E 020°05'3 5.9
2017-Nov-17 13:55N 45°11' E 020°10'2 6.0
2017-Nov-17 13:30N 45°10' E 020°13'3 6.6
2017-Nov-17 13:00N 45°08' E 020°17'3 6.5
2017-Nov-17 12:30N 45°05' E 020°19'3 6.6
2017-Nov-17 12:00N 45°02' E 020°22'3 5.4
2017-Nov-17 11:30N 44°60' E 020°20'3 5.7
2017-Nov-17 11:00N 44°58' E 020°17'3 6.5
2017-Nov-17 10:30N 44°55' E 020°20'4 7.1
2017-Nov-17 10:01N 44°52' E 020°22'3 6.8
2017-Nov-17 09:30N 44°50' E 020°27'1 2.7
2017-Nov-17 09:00N 44°50' E 020°28'0 0.1
2017-Nov-17 08:30N 44°50' E 020°28'0 0.5
2017-Nov-17 08:00N 44°50' E 020°29'0 0.0
2017-Nov-17 07:30N 44°50' E 020°29'1 2.3
2017-Nov-17 07:00N 44°50' E 020°30'0 0.5
2017-Nov-17 06:30N 44°50' E 020°31'0 0.0
2017-Nov-17 06:01N 44°50' E 020°31'0 0.0
2017-Nov-17 05:31N 44°50' E 020°31'0 0.0
2017-Nov-17 05:01N 44°50' E 020°31'0 0.0
2017-Nov-17 04:30N 44°50' E 020°31'0 0.0
2017-Nov-17 04:01N 44°50' E 020°31'0 0.0
2017-Nov-17 03:31N 44°50' E 020°31'0 0.0
2017-Nov-17 03:01N 44°50' E 020°31'0 0.3
2017-Nov-17 01:17N 44°50' E 020°31'2 6.5
2017-Nov-17 01:01N 44°51' E 020°33'3 6.1
2017-Nov-17 00:30N 44°51' E 020°38'3 5.9
2017-Nov-17 00:00N 44°48' E 020°38'3 6.3
2017-Nov-16 23:30N 44°45' E 020°38'3 6.4
2017-Nov-16 23:00N 44°43' E 020°42'3 6.5
2017-Nov-16 22:31N 44°40' E 020°45'3 6.3
2017-Nov-16 22:01N 44°39' E 020°49'3 6.6
2017-Nov-16 21:31N 44°40' E 020°54'3 6.2
2017-Nov-16 21:01N 44°42' E 020°57'3 5.3
2017-Nov-16 20:31N 44°43' E 021°00'2 4.8
2017-Nov-16 20:00N 44°43' E 021°04'3 6.8
2017-Nov-16 19:31N 44°44' E 021°08'3 6.5
2017-Nov-16 19:00N 44°46' E 021°12'9 5.5
2017-Nov-16 17:26N 44°47' E 021°24'3 6.5
2017-Nov-16 17:01N 44°47' E 021°28'2 4.0
2017-Nov-16 16:27N 44°46' E 021°31'0 0.0
2017-Nov-16 16:01N 44°46' E 021°31'0 0.0
2017-Nov-16 15:31N 44°46' E 021°31'0 0.0
2017-Nov-16 15:01N 44°46' E 021°31'0 0.0
2017-Nov-16 14:31N 44°46' E 021°31'0 0.1
2017-Nov-16 13:58N 44°46' E 021°31'2 3.8
2017-Nov-16 13:31N 44°46' E 021°33'3 6.6
2017-Nov-16 13:01N 44°44' E 021°37'4 6.7
2017-Nov-16 12:29N 44°41' E 021°40'14 6.2
2017-Nov-16 10:12N 44°38' E 021°59'2 7.0
2017-Nov-16 09:59N 44°37' E 022°00'3 6.6
2017-Nov-16 09:31N 44°34' E 022°02'3 6.8
2017-Nov-16 09:01N 44°31' E 022°05'3 7.0
2017-Nov-16 08:31N 44°28' E 022°08'3 6.2
2017-Nov-16 08:00N 44°30' E 022°12'4 7.5
2017-Nov-16 07:29N 44°34' E 022°14'6 7.0
2017-Nov-16 06:35N 44°39' E 022°18'1 7.4
2017-Nov-16 06:30N 44°40' E 022°19'4 7.4
2017-Nov-16 06:00N 44°41' E 022°24'4 7.1
2017-Nov-16 05:30N 44°43' E 022°28'4 5.6
2017-Nov-16 04:51N 44°40' E 022°31'0 0.0
2017-Nov-16 04:25N 44°40' E 022°31'0 0.3
2017-Nov-16 03:47N 44°40' E 022°32'0 0.0
2017-Nov-16 03:24N 44°40' E 022°32'5 3.7
2017-Nov-16 01:57N 44°37' E 022°38'0 0.0
2017-Nov-16 01:30N 44°37' E 022°38'0 0.0
2017-Nov-16 01:00N 44°37' E 022°38'0 0.0
2017-Nov-16 00:30N 44°37' E 022°38'0 0.7
2017-Nov-15 23:59N 44°37' E 022°38'0 0.0
2017-Nov-15 23:29N 44°37' E 022°38'0 0.0
2017-Nov-15 22:56N 44°37' E 022°38'0 0.0
2017-Nov-15 22:29N 44°37' E 022°38'0 0.0
2017-Nov-15 21:59N 44°37' E 022°38'0 0.0
2017-Nov-15 21:30N 44°37' E 022°38'0 0.0
2017-Nov-15 20:55N 44°37' E 022°38'0 0.0
2017-Nov-15 20:28N 44°37' E 022°38'0 0.0
2017-Nov-15 19:59N 44°37' E 022°38'0 0.0
2017-Nov-15 19:24N 44°37' E 022°38'0 0.0
2017-Nov-15 18:54N 44°37' E 022°38'0 0.0
2017-Nov-15 18:25N 44°37' E 022°38'0 0.0
2017-Nov-15 18:00N 44°37' E 022°38'0 0.0
2017-Nov-15 17:30N 44°37' E 022°38'0 0.0
2017-Nov-15 17:00N 44°37' E 022°38'0 0.0
2017-Nov-15 16:30N 44°37' E 022°38'0 0.0
2017-Nov-15 16:00N 44°37' E 022°38'0 0.0
2017-Nov-15 15:30N 44°37' E 022°38'0 0.0
2017-Nov-15 14:49N 44°37' E 022°38'0 0.0
2017-Nov-15 14:25N 44°37' E 022°38'0 0.0
2017-Nov-15 13:51N 44°37' E 022°38'0 0.0
2017-Nov-15 13:28N 44°37' E 022°38'0 0.0
2017-Nov-15 12:55N 44°37' E 022°38'0 0.0
2017-Nov-15 12:21N 44°37' E 022°38'0 0.0
2017-Nov-15 11:59N 44°37' E 022°38'0 0.0
2017-Nov-15 11:25N 44°37' E 022°38'0 0.0
2017-Nov-15 10:52N 44°37' E 022°38'0 0.0
2017-Nov-15 10:25N 44°37' E 022°38'0 0.0
2017-Nov-15 09:52N 44°37' E 022°38'0 0.0
2017-Nov-15 09:29N 44°37' E 022°38'0 0.0
2017-Nov-15 08:56N 44°37' E 022°38'0 0.0
2017-Nov-15 08:22N 44°37' E 022°38'0 0.0
2017-Nov-15 07:59N 44°37' E 022°38'0 0.0
2017-Nov-15 07:26N 44°37' E 022°38'0 0.0
2017-Nov-15 06:52N 44°37' E 022°38'0 0.0
2017-Nov-15 06:30N 44°37' E 022°38'0 0.0
2017-Nov-15 05:56N 44°37' E 022°38'0 0.0
2017-Nov-15 05:22N 44°37' E 022°38'0 0.0
2017-Nov-15 05:00N 44°37' E 022°38'0 0.0
2017-Nov-15 04:24N 44°37' E 022°38'0 0.0
2017-Nov-15 03:50N 44°37' E 022°38'0 0.0
2017-Nov-15 03:12N 44°37' E 022°38'0 0.0
2017-Nov-15 02:50N 44°37' E 022°38'0 0.0
2017-Nov-15 02:28N 44°37' E 022°38'0 0.0
2017-Nov-15 01:54N 44°37' E 022°38'0 0.0
2017-Nov-15 01:16N 44°37' E 022°38'0 0.0
2017-Nov-15 00:54N 44°37' E 022°38'0 0.0
2017-Nov-15 00:20N 44°37' E 022°38'0 0.0
2017-Nov-14 23:58N 44°37' E 022°38'0 0.0
2017-Nov-14 23:24N 44°37' E 022°38'0 0.0
2017-Nov-14 22:50N 44°37' E 022°38'0 0.0
2017-Nov-14 22:28N 44°37' E 022°38'0 0.0
2017-Nov-14 21:54N 44°37' E 022°38'0 0.0
2017-Nov-14 21:20N 44°37' E 022°38'0 0.0
2017-Nov-14 20:58N 44°37' E 022°38'0 0.0
2017-Nov-14 20:20N 44°37' E 022°38'0 0.0
2017-Nov-14 20:00N 44°37' E 022°38'0 0.0
2017-Nov-14 19:30N 44°37' E 022°38'0 0.0
2017-Nov-14 19:00N 44°37' E 022°38'0 0.0
2017-Nov-14 18:28N 44°37' E 022°38'0 0.0
2017-Nov-14 17:59N 44°37' E 022°38'0 0.0
2017-Nov-14 17:25N 44°37' E 022°38'0 0.0
2017-Nov-14 16:52N 44°37' E 022°38'0 0.0
2017-Nov-14 16:29N 44°37' E 022°38'0 0.0
2017-Nov-14 15:55N 44°37' E 022°38'0 0.0
2017-Nov-14 15:22N 44°37' E 022°38'0 0.0
2017-Nov-14 14:59N 44°37' E 022°38'0 0.0
2017-Nov-14 14:26N 44°37' E 022°38'0 0.0
2017-Nov-14 13:52N 44°37' E 022°38'0 0.0
2017-Nov-14 13:30N 44°37' E 022°38'0 0.0
2017-Nov-14 12:56N 44°37' E 022°38'0 0.0
2017-Nov-14 12:22N 44°37' E 022°38'0 0.0
2017-Nov-14 12:00N 44°37' E 022°38'0 0.0
2017-Nov-14 11:22N 44°37' E 022°38'0 0.0
2017-Nov-14 11:00N 44°37' E 022°38'0 0.0
2017-Nov-14 10:26N 44°37' E 022°38'0 0.0
2017-Nov-14 09:52N 44°37' E 022°38'0 0.0
2017-Nov-14 09:26N 44°37' E 022°38'0 0.0
2017-Nov-14 08:48N 44°37' E 022°38'0 0.0
2017-Nov-14 08:26N 44°37' E 022°38'0 0.0
2017-Nov-14 07:59N 44°37' E 022°38'0 0.0
2017-Nov-14 07:25N 44°37' E 022°38'0 0.1
2017-Nov-14 06:52N 44°37' E 022°38'0 0.0
2017-Nov-14 06:29N 44°37' E 022°38'0 0.0
2017-Nov-14 05:55N 44°37' E 022°38'0 0.0
2017-Nov-14 05:29N 44°37' E 022°38'0 0.0
2017-Nov-14 04:51N 44°37' E 022°38'0 0.0
2017-Nov-14 04:29N 44°37' E 022°38'0 0.0
2017-Nov-14 03:44N 44°37' E 022°38'0 0.0
2017-Nov-14 03:21N 44°37' E 022°38'0 0.0
2017-Nov-14 02:56N 44°37' E 022°38'0 0.0
2017-Nov-14 02:22N 44°37' E 022°38'0 0.0
2017-Nov-14 02:00N 44°37' E 022°38'0 0.0
2017-Nov-14 01:22N 44°37' E 022°38'0 0.0
2017-Nov-14 01:00N 44°37' E 022°38'0 0.0
2017-Nov-14 00:23N 44°37' E 022°38'0 0.0
2017-Nov-14 00:00N 44°37' E 022°38'0 0.0
2017-Nov-13 23:22N 44°37' E 022°38'0 0.0
2017-Nov-13 22:59N 44°37' E 022°38'0 0.0
2017-Nov-13 22:22N 44°37' E 022°38'0 0.0
2017-Nov-13 21:59N 44°37' E 022°38'0 0.0
2017-Nov-13 01:57N 44°37' E 022°38'0 0.1
2017-Nov-13 01:30N 44°37' E 022°38'0 0.2
2017-Nov-13 00:59N 44°37' E 022°38'0 0.0
2017-Nov-13 00:29N 44°37' E 022°38'0 0.0
2017-Nov-12 23:57N 44°37' E 022°38'0 0.0
2017-Nov-12 23:29N 44°37' E 022°38'0 0.0
2017-Nov-12 22:54N 44°37' E 022°38'0 0.0
2017-Nov-12 22:30N 44°37' E 022°38'0 0.0
2017-Nov-12 22:00N 44°37' E 022°38'0 0.0
2017-Nov-12 21:30N 44°37' E 022°38'0 0.0
2017-Nov-12 20:58N 44°37' E 022°38'0 0.0
2017-Nov-12 20:27N 44°37' E 022°38'0 0.0
2017-Nov-12 19:42N 44°37' E 022°38'0 0.0
2017-Nov-12 19:27N 44°37' E 022°38'0 0.0
2017-Nov-12 18:42N 44°37' E 022°38'0 0.0
2017-Nov-12 17:46N 44°37' E 022°38'0 0.0
2017-Nov-12 17:24N 44°37' E 022°38'0 0.0
2017-Nov-12 16:50N 44°37' E 022°38'0 0.0
2017-Nov-12 16:27N 44°37' E 022°38'0 0.0
2017-Nov-12 15:54N 44°37' E 022°38'0 0.0
2017-Nov-12 15:20N 44°37' E 022°38'0 0.0
2017-Nov-12 14:58N 44°37' E 022°38'0 0.0
2017-Nov-12 14:24N 44°37' E 022°38'0 0.0
2017-Nov-12 13:50N 44°37' E 022°38'0 0.0
2017-Nov-12 13:28N 44°37' E 022°38'0 0.0
2017-Nov-12 12:50N 44°37' E 022°38'0 0.0
2017-Nov-12 12:28N 44°37' E 022°38'0 0.0
2017-Nov-12 11:51N 44°37' E 022°38'0 0.0
2017-Nov-12 11:20N 44°37' E 022°38'0 0.0
2017-Nov-12 10:57N 44°37' E 022°38'0 0.0
2017-Nov-12 10:23N 44°37' E 022°38'0 0.0
2017-Nov-12 09:50N 44°37' E 022°38'0 0.0
2017-Nov-12 09:27N 44°37' E 022°38'0 0.0
2017-Nov-12 08:51N 44°37' E 022°38'0 0.0
2017-Nov-12 08:28N 44°37' E 022°38'0 0.0
2017-Nov-12 07:54N 44°37' E 022°38'0 0.0
2017-Nov-12 07:28N 44°37' E 022°38'0 0.0
2017-Nov-12 06:50N 44°37' E 022°38'0 0.0
2017-Nov-12 06:28N 44°37' E 022°38'0 0.0
2017-Nov-12 05:50N 44°37' E 022°38'0 0.2
2017-Nov-12 05:31N 44°37' E 022°39'2 4.5
2017-Nov-12 05:00N 44°37' E 022°42'3 6.7
2017-Nov-12 04:30N 44°34' E 022°45'3 5.2
2017-Nov-12 04:01N 44°32' E 022°44'3 6.0
2017-Nov-12 03:31N 44°32' E 022°40'1 2.3
2017-Nov-12 03:01N 44°32' E 022°39'0 0.0
2017-Nov-12 02:30N 44°32' E 022°39'0 0.0
2017-Nov-12 02:00N 44°32' E 022°39'0 0.0
2017-Nov-12 01:30N 44°32' E 022°39'0 0.0
2017-Nov-12 01:00N 44°32' E 022°39'0 0.0
2017-Nov-12 00:31N 44°32' E 022°39'0 0.0
2017-Nov-12 00:00N 44°32' E 022°39'0 0.0
2017-Nov-11 23:30N 44°32' E 022°39'0 0.0
2017-Nov-11 23:00N 44°32' E 022°39'0 0.0
2017-Nov-11 22:30N 44°32' E 022°39'0 0.0
2017-Nov-11 22:00N 44°32' E 022°39'0 0.0
2017-Nov-11 21:30N 44°32' E 022°39'0 0.2
2017-Nov-11 21:00N 44°32' E 022°39'2 5.0
2017-Nov-11 20:30N 44°33' E 022°35'3 6.7
2017-Nov-11 20:00N 44°30' E 022°33'3 6.1
2017-Nov-11 19:30N 44°29' E 022°29'2 3.9
2017-Nov-11 19:01N 44°27' E 022°28'3 6.2
2017-Nov-11 18:31N 44°24' E 022°30'3 6.6
2017-Nov-11 18:01N 44°21' E 022°31'3 6.9
2017-Nov-11 17:31N 44°18' E 022°34'0 0.5
2017-Nov-11 17:01N 44°18' E 022°34'1 2.5
2017-Nov-11 16:31N 44°18' E 022°36'1 2.5
2017-Nov-11 16:01N 44°18' E 022°37'3 5.2
2017-Nov-11 15:30N 44°17' E 022°41'3 6.2
2017-Nov-11 14:57N 44°13' E 022°40'2 5.1
2017-Nov-11 14:30N 44°12' E 022°43'3 5.5
2017-Nov-11 14:00N 44°11' E 022°46'3 6.2
2017-Nov-11 13:30N 44°09' E 022°50'3 6.0
2017-Nov-11 13:00N 44°07' E 022°53'3 5.4
2017-Nov-11 12:30N 44°06' E 022°57'3 6.3
2017-Nov-11 12:00N 44°05' E 023°01'3 5.2
2017-Nov-11 11:30N 44°03' E 023°02'3 5.7
2017-Nov-11 11:00N 44°01' E 023°00'3 6.0
2017-Nov-11 10:30N 44°00' E 022°56'3 5.8
2017-Nov-11 10:00N 43°59' E 022°53'3 6.4
2017-Nov-11 09:30N 43°55' E 022°52'3 6.0
2017-Nov-11 09:00N 43°53' E 022°50'3 6.1
2017-Nov-11 08:30N 43°50' E 022°53'3 6.4
2017-Nov-11 08:00N 43°49' E 022°57'3 6.0
2017-Nov-11 07:30N 43°48' E 023°01'4 5.8
2017-Nov-11 06:47N 43°48' E 023°07'2 5.6
2017-Nov-11 06:29N 43°49' E 023°09'3 6.6
2017-Nov-11 06:00N 43°50' E 023°13'3 6.7
2017-Nov-11 05:30N 43°51' E 023°18'3 6.9
2017-Nov-11 05:00N 43°51' E 023°22'5 6.5
2017-Nov-11 04:09N 43°50' E 023°30'1 6.4
2017-Nov-11 04:00N 43°49' E 023°31'3 6.3
2017-Nov-11 03:28N 43°48' E 023°35'4 0.6
2017-Nov-10 20:52N 43°48' E 023°40'2 3.6
2017-Nov-10 20:25N 43°48' E 023°43'  
Track history (hours):
 
Tides and Currents Weather Stations Pressure Air Temp Water Temp Dewpoint Dewpoint Depression Visibility Wind Speed Wind Dir Waves Ship Positions

Atlas

Last reported at 2017-Nov-18 15:27 UTC. Time now 2017-Nov-21 10:12 UTC.
Position N 45°59' E 018°43'.

Length 110 m; draft 0.3 m.

Type: Tanker. MMSI: 264163292.

Date/timePositionNaut miles runAvg speedWind from/ knotsBaromVisibWave heightAir tempDewpointWater temp
2017-Nov-18 15:27N 45°59' E 018°43'5 1.2
2017-Nov-18 10:53N 45°55' E 018°48'2 5.3
2017-Nov-18 10:30N 45°53' E 018°50'3 5.0
2017-Nov-18 09:59N 45°51' E 018°52'0 0.0
2017-Nov-18 09:18N 45°51' E 018°52'0 1.6
2017-Nov-18 09:00N 45°50' E 018°51'3 5.6
2017-Nov-18 08:30N 45°48' E 018°51'2 5.0
2017-Nov-18 08:00N 45°46' E 018°53'3 5.8
2017-Nov-18 07:31N 45°43' E 018°54'3 5.4
2017-Nov-18 07:01N 45°41' E 018°57'2 2.3
2017-Nov-18 06:08N 45°39' E 018°57'1 4.9
2017-Nov-18 06:01N 45°38' E 018°56'3 5.1
2017-Nov-18 05:31N 45°36' E 018°54'3 4.9
2017-Nov-18 04:57N 45°34' E 018°54'3 5.4
2017-Nov-18 04:22N 45°32' E 018°58'2 5.5
2017-Nov-18 04:01N 45°33' E 019°00'2 3.6
2017-Nov-18 03:27N 45°32' E 019°03'2 5.5
2017-Nov-18 03:01N 45°31' E 019°06'3 4.9
2017-Nov-18 02:30N 45°29' E 019°04'3 5.4
2017-Nov-18 02:01N 45°30' E 018°60'3 5.8
2017-Nov-18 01:31N 45°27' E 018°59'3 5.5
2017-Nov-18 01:01N 45°25' E 019°02'3 5.5
2017-Nov-18 00:31N 45°23' E 018°58'3 5.5
2017-Nov-18 00:00N 45°21' E 019°01'3 5.9
2017-Nov-17 23:31N 45°21' E 019°05'3 5.5
2017-Nov-17 23:01N 45°18' E 019°06'3 5.8
2017-Nov-17 22:30N 45°17' E 019°10'3 5.8
2017-Nov-17 22:00N 45°15' E 019°13'3 5.3
2017-Nov-17 21:28N 45°14' E 019°17'3 6.0
2017-Nov-17 21:00N 45°14' E 019°21'3 5.8
2017-Nov-17 20:31N 45°14' E 019°25'3 5.8
2017-Nov-17 20:00N 45°14' E 019°29'3 4.3
2017-Nov-17 19:13N 45°13' E 019°34'3 5.4
2017-Nov-17 18:39N 45°13' E 019°38'1 3.7
2017-Nov-17 18:30N 45°13' E 019°39'3 5.7
2017-Nov-17 18:00N 45°14' E 019°43'3 5.6
2017-Nov-17 17:28N 45°13' E 019°47'3 5.6
2017-Nov-17 17:01N 45°14' E 019°51'2 4.3
2017-Nov-17 16:28N 45°16' E 019°52'3 3.9
2017-Nov-17 15:46N 45°14' E 019°55'2 6.6
2017-Nov-17 15:30N 45°12' E 019°57'3 6.4
2017-Nov-17 15:00N 45°11' E 020°00'4 6.7
2017-Nov-17 14:28N 45°10' E 020°05'3 5.9
2017-Nov-17 13:55N 45°11' E 020°10'2 6.0
2017-Nov-17 13:30N 45°10' E 020°13'3 6.6
2017-Nov-17 13:00N 45°08' E 020°17'3 6.5
2017-Nov-17 12:30N 45°05' E 020°19'3 6.6
2017-Nov-17 12:00N 45°02' E 020°22'3 5.4
2017-Nov-17 11:30N 44°60' E 020°20'3 5.7
2017-Nov-17 11:00N 44°58' E 020°17'3 6.5
2017-Nov-17 10:30N 44°55' E 020°20'4 7.1
2017-Nov-17 10:01N 44°52' E 020°22'3 6.8
2017-Nov-17 09:30N 44°50' E 020°27'1 2.7
2017-Nov-17 09:00N 44°50' E 020°28'0 0.1
2017-Nov-17 08:30N 44°50' E 020°28'0 0.5
2017-Nov-17 08:00N 44°50' E 020°29'0 0.0
2017-Nov-17 07:30N 44°50' E 020°29'1 2.3
2017-Nov-17 07:00N 44°50' E 020°30'0 0.5
2017-Nov-17 06:30N 44°50' E 020°31'0 0.0
2017-Nov-17 06:01N 44°50' E 020°31'0 0.0
2017-Nov-17 05:31N 44°50' E 020°31'0 0.0
2017-Nov-17 05:01N 44°50' E 020°31'0 0.0
2017-Nov-17 04:30N 44°50' E 020°31'0 0.0
2017-Nov-17 04:01N 44°50' E 020°31'0 0.0
2017-Nov-17 03:31N 44°50' E 020°31'0 0.0
2017-Nov-17 03:01N 44°50' E 020°31'0 0.3
2017-Nov-17 01:17N 44°50' E 020°31'2 6.5
2017-Nov-17 01:01N 44°51' E 020°33'3 6.1
2017-Nov-17 00:30N 44°51' E 020°38'3 5.9
2017-Nov-17 00:00N 44°48' E 020°38'3 6.3
2017-Nov-16 23:30N 44°45' E 020°38'3 6.4
2017-Nov-16 23:00N 44°43' E 020°42'3 6.5
2017-Nov-16 22:31N 44°40' E 020°45'3 6.3
2017-Nov-16 22:01N 44°39' E 020°49'3 6.6
2017-Nov-16 21:31N 44°40' E 020°54'3 6.2
2017-Nov-16 21:01N 44°42' E 020°57'3 5.3
2017-Nov-16 20:31N 44°43' E 021°00'2 4.8
2017-Nov-16 20:00N 44°43' E 021°04'3 6.8
2017-Nov-16 19:31N 44°44' E 021°08'3 6.5
2017-Nov-16 19:00N 44°46' E 021°12'9 5.5
2017-Nov-16 17:26N 44°47' E 021°24'3 6.5
2017-Nov-16 17:01N 44°47' E 021°28'2 4.0
2017-Nov-16 16:27N 44°46' E 021°31'0 0.0
2017-Nov-16 16:01N 44°46' E 021°31'0 0.0
2017-Nov-16 15:31N 44°46' E 021°31'0 0.0
2017-Nov-16 15:01N 44°46' E 021°31'0 0.0
2017-Nov-16 14:31N 44°46' E 021°31'0 0.1
2017-Nov-16 13:58N 44°46' E 021°31'2 3.8
2017-Nov-16 13:31N 44°46' E 021°33'3 6.6
2017-Nov-16 13:01N 44°44' E 021°37'4 6.7
2017-Nov-16 12:29N 44°41' E 021°40'14 6.2
2017-Nov-16 10:12N 44°38' E 021°59'2 7.0
2017-Nov-16 09:59N 44°37' E 022°00'3 6.6
2017-Nov-16 09:31N 44°34' E 022°02'3 6.8
2017-Nov-16 09:01N 44°31' E 022°05'3 7.0
2017-Nov-16 08:31N 44°28' E 022°08'3 6.2
2017-Nov-16 08:00N 44°30' E 022°12'4 7.5
2017-Nov-16 07:29N 44°34' E 022°14'6 7.0
2017-Nov-16 06:35N 44°39' E 022°18'1 7.4
2017-Nov-16 06:30N 44°40' E 022°19'4 7.4
2017-Nov-16 06:00N 44°41' E 022°24'4 7.1
2017-Nov-16 05:30N 44°43' E 022°28'4 5.6
2017-Nov-16 04:51N 44°40' E 022°31'0 0.0
2017-Nov-16 04:25N 44°40' E 022°31'0 0.3
2017-Nov-16 03:47N 44°40' E 022°32'0 0.0
2017-Nov-16 03:24N 44°40' E 022°32'5 3.7
2017-Nov-16 01:57N 44°37' E 022°38'0 0.0
2017-Nov-16 01:30N 44°37' E 022°38'0 0.0
2017-Nov-16 01:00N 44°37' E 022°38'0 0.0
2017-Nov-16 00:30N 44°37' E 022°38'0 0.7
2017-Nov-15 23:59N 44°37' E 022°38'0 0.0
2017-Nov-15 23:29N 44°37' E 022°38'0 0.0
2017-Nov-15 22:56N 44°37' E 022°38'0 0.0
2017-Nov-15 22:29N 44°37' E 022°38'0 0.0
2017-Nov-15 21:59N 44°37' E 022°38'0 0.0
2017-Nov-15 21:30N 44°37' E 022°38'0 0.0
2017-Nov-15 20:55N 44°37' E 022°38'0 0.0
2017-Nov-15 20:28N 44°37' E 022°38'0 0.0
2017-Nov-15 19:59N 44°37' E 022°38'0 0.0
2017-Nov-15 19:24N 44°37' E 022°38'0 0.0
2017-Nov-15 18:54N 44°37' E 022°38'0 0.0
2017-Nov-15 18:25N 44°37' E 022°38'0 0.0
2017-Nov-15 18:00N 44°37' E 022°38'0 0.0
2017-Nov-15 17:30N 44°37' E 022°38'0 0.0
2017-Nov-15 17:00N 44°37' E 022°38'0 0.0
2017-Nov-15 16:30N 44°37' E 022°38'0 0.0
2017-Nov-15 16:00N 44°37' E 022°38'0 0.0
2017-Nov-15 15:30N 44°37' E 022°38'0 0.0
2017-Nov-15 14:49N 44°37' E 022°38'0 0.0
2017-Nov-15 14:25N 44°37' E 022°38'0 0.0
2017-Nov-15 13:51N 44°37' E 022°38'0 0.0
2017-Nov-15 13:28N 44°37' E 022°38'0 0.0
2017-Nov-15 12:55N 44°37' E 022°38'0 0.0
2017-Nov-15 12:21N 44°37' E 022°38'0 0.0
2017-Nov-15 11:59N 44°37' E 022°38'0 0.0
2017-Nov-15 11:25N 44°37' E 022°38'0 0.0
2017-Nov-15 10:52N 44°37' E 022°38'0 0.0
2017-Nov-15 10:25N 44°37' E 022°38'0 0.0
2017-Nov-15 09:52N 44°37' E 022°38'0 0.0
2017-Nov-15 09:29N 44°37' E 022°38'0 0.0
2017-Nov-15 08:56N 44°37' E 022°38'0 0.0
2017-Nov-15 08:22N 44°37' E 022°38'0 0.0
2017-Nov-15 07:59N 44°37' E 022°38'0 0.0
2017-Nov-15 07:26N 44°37' E 022°38'0 0.0
2017-Nov-15 06:52N 44°37' E 022°38'0 0.0
2017-Nov-15 06:30N 44°37' E 022°38'0 0.0
2017-Nov-15 05:56N 44°37' E 022°38'0 0.0
2017-Nov-15 05:22N 44°37' E 022°38'0 0.0
2017-Nov-15 05:00N 44°37' E 022°38'0 0.0
2017-Nov-15 04:24N 44°37' E 022°38'0 0.0
2017-Nov-15 03:50N 44°37' E 022°38'0 0.0
2017-Nov-15 03:12N 44°37' E 022°38'0 0.0
2017-Nov-15 02:50N 44°37' E 022°38'0 0.0
2017-Nov-15 02:28N 44°37' E 022°38'0 0.0
2017-Nov-15 01:54N 44°37' E 022°38'0 0.0
2017-Nov-15 01:16N 44°37' E 022°38'0 0.0
2017-Nov-15 00:54N 44°37' E 022°38'0 0.0
2017-Nov-15 00:20N 44°37' E 022°38'0 0.0
2017-Nov-14 23:58N 44°37' E 022°38'0 0.0
2017-Nov-14 23:24N 44°37' E 022°38'0 0.0
2017-Nov-14 22:50N 44°37' E 022°38'0 0.0
2017-Nov-14 22:28N 44°37' E 022°38'0 0.0
2017-Nov-14 21:54N 44°37' E 022°38'0 0.0
2017-Nov-14 21:20N 44°37' E 022°38'0 0.0
2017-Nov-14 20:58N 44°37' E 022°38'0 0.0
2017-Nov-14 20:20N 44°37' E 022°38'0 0.0
2017-Nov-14 20:00N 44°37' E 022°38'0 0.0
2017-Nov-14 19:30N 44°37' E 022°38'0 0.0
2017-Nov-14 19:00N 44°37' E 022°38'0 0.0
2017-Nov-14 18:28N 44°37' E 022°38'0 0.0
2017-Nov-14 17:59N 44°37' E 022°38'0 0.0
2017-Nov-14 17:25N 44°37' E 022°38'0 0.0
2017-Nov-14 16:52N 44°37' E 022°38'0 0.0
2017-Nov-14 16:29N 44°37' E 022°38'0 0.0
2017-Nov-14 15:55N 44°37' E 022°38'0 0.0
2017-Nov-14 15:22N 44°37' E 022°38'0 0.0
2017-Nov-14 14:59N 44°37' E 022°38'0 0.0
2017-Nov-14 14:26N 44°37' E 022°38'0 0.0
2017-Nov-14 13:52N 44°37' E 022°38'0 0.0
2017-Nov-14 13:30N 44°37' E 022°38'0 0.0
2017-Nov-14 12:56N 44°37' E 022°38'0 0.0
2017-Nov-14 12:22N 44°37' E 022°38'0 0.0
2017-Nov-14 12:00N 44°37' E 022°38'0 0.0
2017-Nov-14 11:22N 44°37' E 022°38'0 0.0
2017-Nov-14 11:00N 44°37' E 022°38'0 0.0
2017-Nov-14 10:26N 44°37' E 022°38'0 0.0
2017-Nov-14 09:52N 44°37' E 022°38'0 0.0
2017-Nov-14 09:26N 44°37' E 022°38'0 0.0
2017-Nov-14 08:48N 44°37' E 022°38'0 0.0
2017-Nov-14 08:26N 44°37' E 022°38'0 0.0
2017-Nov-14 07:59N 44°37' E 022°38'0 0.0
2017-Nov-14 07:25N 44°37' E 022°38'0 0.1
2017-Nov-14 06:52N 44°37' E 022°38'0 0.0
2017-Nov-14 06:29N 44°37' E 022°38'0 0.0
2017-Nov-14 05:55N 44°37' E 022°38'0 0.0
2017-Nov-14 05:29N 44°37' E 022°38'0 0.0
2017-Nov-14 04:51N 44°37' E 022°38'0 0.0
2017-Nov-14 04:29N 44°37' E 022°38'0 0.0
2017-Nov-14 03:44N 44°37' E 022°38'0 0.0
2017-Nov-14 03:21N 44°37' E 022°38'0 0.0
2017-Nov-14 02:56N 44°37' E 022°38'0 0.0
2017-Nov-14 02:22N 44°37' E 022°38'0 0.0
2017-Nov-14 02:00N 44°37' E 022°38'0 0.0
2017-Nov-14 01:22N 44°37' E 022°38'0 0.0
2017-Nov-14 01:00N 44°37' E 022°38'0 0.0
2017-Nov-14 00:23N 44°37' E 022°38'0 0.0
2017-Nov-14 00:00N 44°37' E 022°38'0 0.0
2017-Nov-13 23:22N 44°37' E 022°38'0 0.0
2017-Nov-13 22:59N 44°37' E 022°38'0 0.0
2017-Nov-13 22:22N 44°37' E 022°38'0 0.0
2017-Nov-13 21:59N 44°37' E 022°38'0 0.0
2017-Nov-13 01:57N 44°37' E 022°38'0 0.1
2017-Nov-13 01:30N 44°37' E 022°38'0 0.2
2017-Nov-13 00:59N 44°37' E 022°38'0 0.0
2017-Nov-13 00:29N 44°37' E 022°38'0 0.0
2017-Nov-12 23:57N 44°37' E 022°38'0 0.0
2017-Nov-12 23:29N 44°37' E 022°38'0 0.0
2017-Nov-12 22:54N 44°37' E 022°38'0 0.0
2017-Nov-12 22:30N 44°37' E 022°38'0 0.0
2017-Nov-12 22:00N 44°37' E 022°38'0 0.0
2017-Nov-12 21:30N 44°37' E 022°38'0 0.0
2017-Nov-12 20:58N 44°37' E 022°38'0 0.0
2017-Nov-12 20:27N 44°37' E 022°38'0 0.0
2017-Nov-12 19:42N 44°37' E 022°38'0 0.0
2017-Nov-12 19:27N 44°37' E 022°38'0 0.0
2017-Nov-12 18:42N 44°37' E 022°38'0 0.0
2017-Nov-12 17:46N 44°37' E 022°38'0 0.0
2017-Nov-12 17:24N 44°37' E 022°38'0 0.0
2017-Nov-12 16:50N 44°37' E 022°38'0 0.0
2017-Nov-12 16:27N 44°37' E 022°38'0 0.0
2017-Nov-12 15:54N 44°37' E 022°38'0 0.0
2017-Nov-12 15:20N 44°37' E 022°38'0 0.0
2017-Nov-12 14:58N 44°37' E 022°38'0 0.0
2017-Nov-12 14:24N 44°37' E 022°38'0 0.0
2017-Nov-12 13:50N 44°37' E 022°38'0 0.0
2017-Nov-12 13:28N 44°37' E 022°38'0 0.0
2017-Nov-12 12:50N 44°37' E 022°38'0 0.0
2017-Nov-12 12:28N 44°37' E 022°38'0 0.0
2017-Nov-12 11:51N 44°37' E 022°38'0 0.0
2017-Nov-12 11:20N 44°37' E 022°38'0 0.0
2017-Nov-12 10:57N 44°37' E 022°38'0 0.0
2017-Nov-12 10:23N 44°37' E 022°38'0 0.0
2017-Nov-12 09:50N 44°37' E 022°38'0 0.0
2017-Nov-12 09:27N 44°37' E 022°38'0 0.0
2017-Nov-12 08:51N 44°37' E 022°38'0 0.0
2017-Nov-12 08:28N 44°37' E 022°38'0 0.0
2017-Nov-12 07:54N 44°37' E 022°38'0 0.0
2017-Nov-12 07:28N 44°37' E 022°38'0 0.0
2017-Nov-12 06:50N 44°37' E 022°38'0 0.0
2017-Nov-12 06:28N 44°37' E 022°38'0 0.0
2017-Nov-12 05:50N 44°37' E 022°38'0 0.2
2017-Nov-12 05:31N 44°37' E 022°39'2 4.5
2017-Nov-12 05:00N 44°37' E 022°42'3 6.7
2017-Nov-12 04:30N 44°34' E 022°45'3 5.2
2017-Nov-12 04:01N 44°32' E 022°44'3 6.0
2017-Nov-12 03:31N 44°32' E 022°40'1 2.3
2017-Nov-12 03:01N 44°32' E 022°39'0 0.0
2017-Nov-12 02:30N 44°32' E 022°39'0 0.0
2017-Nov-12 02:00N 44°32' E 022°39'0 0.0
2017-Nov-12 01:30N 44°32' E 022°39'0 0.0
2017-Nov-12 01:00N 44°32' E 022°39'0 0.0
2017-Nov-12 00:31N 44°32' E 022°39'0 0.0
2017-Nov-12 00:00N 44°32' E 022°39'0 0.0
2017-Nov-11 23:30N 44°32' E 022°39'0 0.0
2017-Nov-11 23:00N 44°32' E 022°39'0 0.0
2017-Nov-11 22:30N 44°32' E 022°39'0 0.0
2017-Nov-11 22:00N 44°32' E 022°39'0 0.0
2017-Nov-11 21:30N 44°32' E 022°39'0 0.2
2017-Nov-11 21:00N 44°32' E 022°39'2 5.0
2017-Nov-11 20:30N 44°33' E 022°35'3 6.7
2017-Nov-11 20:00N 44°30' E 022°33'3 6.1
2017-Nov-11 19:30N 44°29' E 022°29'2 3.9
2017-Nov-11 19:01N 44°27' E 022°28'3 6.2
2017-Nov-11 18:31N 44°24' E 022°30'3 6.6
2017-Nov-11 18:01N 44°21' E 022°31'3 6.9
2017-Nov-11 17:31N 44°18' E 022°34'0 0.5
2017-Nov-11 17:01N 44°18' E 022°34'1 2.5
2017-Nov-11 16:31N 44°18' E 022°36'1 2.5
2017-Nov-11 16:01N 44°18' E 022°37'3 5.2
2017-Nov-11 15:30N 44°17' E 022°41'3 6.2
2017-Nov-11 14:57N 44°13' E 022°40'2 5.1
2017-Nov-11 14:30N 44°12' E 022°43'3 5.5
2017-Nov-11 14:00N 44°11' E 022°46'3 6.2
2017-Nov-11 13:30N 44°09' E 022°50'3 6.0
2017-Nov-11 13:00N 44°07' E 022°53'3 5.4
2017-Nov-11 12:30N 44°06' E 022°57'3 6.3
2017-Nov-11 12:00N 44°05' E 023°01'3 5.2
2017-Nov-11 11:30N 44°03' E 023°02'3 5.7
2017-Nov-11 11:00N 44°01' E 023°00'3 6.0
2017-Nov-11 10:30N 44°00' E 022°56'3 5.8
2017-Nov-11 10:00N 43°59' E 022°53'3 6.4
2017-Nov-11 09:30N 43°55' E 022°52'3 6.0
2017-Nov-11 09:00N 43°53' E 022°50'3 6.1
2017-Nov-11 08:30N 43°50' E 022°53'3 6.4
2017-Nov-11 08:00N 43°49' E 022°57'3 6.0
2017-Nov-11 07:30N 43°48' E 023°01'4 5.8
2017-Nov-11 06:47N 43°48' E 023°07'2 5.6
2017-Nov-11 06:29N 43°49' E 023°09'3 6.6
2017-Nov-11 06:00N 43°50' E 023°13'3 6.7
2017-Nov-11 05:30N 43°51' E 023°18'3 6.9
2017-Nov-11 05:00N 43°51' E 023°22'5 6.5
2017-Nov-11 04:09N 43°50' E 023°30'1 6.4
2017-Nov-11 04:00N 43°49' E 023°31'3 6.3
2017-Nov-11 03:28N 43°48' E 023°35'4 0.6
2017-Nov-10 20:52N 43°48' E 023°40'2 3.6
2017-Nov-10 20:25N 43°48' E 023°43'  

Dump ship's entire track history